Time;durP1;ratioP1;P1;durP2;ratioP2;P2;SDS_P1;SDS_P2;PMS_P1;PMS_P2;Temp;Humidity;BMP_temperature;BMP_pressure;BME280_temperature;BME280_humidity;BME280_pressure;Samples;Min_cycle;Max_cycle;Signal;HPM_P1;HPM_P2
2023/07/18 00:00:27;;;;;;;4.67;4.27;;;;;;;15.26;100.00;97435.88;5074758;28;20293;-66
2023/07/18 00:02:55;;;;;;;5.00;4.43;;;;;;;15.16;100.00;97436.31;5072387;28;20218;-64
2023/07/18 00:05:25;;;;;;;5.23;4.67;;;;;;;15.14;100.00;97436.50;5076055;28;20218;-64
2023/07/18 00:07:52;;;;;;;4.60;4.27;;;;;;;15.10;100.00;97437.13;5072942;28;20210;-66
2023/07/18 00:10:20;;;;;;;5.73;4.77;;;;;;;15.06;100.00;97439.38;5076451;28;20305;-64
2023/07/18 00:12:48;;;;;;;4.50;4.10;;;;;;;15.03;100.00;97443.31;5072557;28;20298;-66
2023/07/18 00:15:16;;;;;;;4.80;4.40;;;;;;;14.97;100.00;97444.13;5077800;28;20202;-64
2023/07/18 00:17:44;;;;;;;5.47;5.03;;;;;;;14.93;100.00;97442.06;5076125;28;20255;-64
2023/07/18 00:20:13;;;;;;;5.87;4.73;;;;;;;14.78;100.00;97432.44;5074910;28;20632;-64
2023/07/18 00:22:43;;;;;;;5.63;5.13;;;;;;;14.71;100.00;97445.75;4969904;28;21000;-63
2023/07/18 00:25:13;;;;;;;4.97;4.43;;;;;;;14.61;100.00;97455.97;5076092;28;20737;-65
2023/07/18 00:27:41;;;;;;;4.67;4.37;;;;;;;14.58;100.00;97448.34;5076009;28;20214;-62
2023/07/18 00:30:12;;;;;;;5.37;4.93;;;;;;;14.48;100.00;97457.59;5072365;28;20228;-64
2023/07/18 00:32:40;;;;;;;5.20;4.80;;;;;;;14.39;100.00;97458.81;5072765;28;20885;-63
2023/07/18 00:35:08;;;;;;;8.10;5.03;;;;;;;14.38;100.00;97453.66;5073392;28;20221;-65
2023/07/18 00:37:36;;;;;;;6.60;4.70;;;;;;;14.35;100.00;97448.72;5077989;28;20771;-66
2023/07/18 00:40:10;;;;;;;7.33;5.20;;;;;;;14.32;100.00;97453.44;5076078;28;20206;-63
2023/07/18 00:42:38;;;;;;;5.93;5.43;;;;;;;14.35;100.00;97454.06;5073341;28;20280;-63
2023/07/18 00:45:07;;;;;;;7.77;5.17;;;;;;;14.29;100.00;97448.53;5074972;28;20791;-64
2023/07/18 00:47:37;;;;;;;5.30;4.80;;;;;;;14.32;100.00;97448.13;5072679;28;20230;-63
2023/07/18 00:50:08;;;;;;;5.80;5.20;;;;;;;14.33;100.00;97448.94;5074607;28;20212;-68
2023/07/18 00:52:37;;;;;;;5.77;5.10;;;;;;;14.30;100.00;97449.34;4962088;28;22016;-64
2023/07/18 00:55:07;;;;;;;5.37;4.60;;;;;;;14.27;100.00;97455.91;5075717;28;20221;-63
2023/07/18 00:57:35;;;;;;;6.27;4.57;;;;;;;14.25;100.00;97460.59;5069793;28;20282;-64
2023/07/18 01:00:08;;;;;;;5.03;4.73;;;;;;;14.21;100.00;97458.56;5071979;28;20212;-64
2023/07/18 01:02:38;;;;;;;5.23;4.77;;;;;;;14.13;100.00;97459.56;5072947;28;20272;-64
2023/07/18 01:05:06;;;;;;;4.87;4.47;;;;;;;14.02;100.00;97452.94;5070187;28;20334;-62
2023/07/18 01:07:34;;;;;;;4.80;4.37;;;;;;;13.87;100.00;97455.75;5069875;28;20197;-64
2023/07/18 01:10:23;;;;;;;5.50;4.83;;;;;;;13.80;100.00;97461.03;5072804;28;20662;-62
2023/07/18 01:12:52;;;;;;;4.70;4.17;;;;;;;13.64;100.00;97467.56;5070912;28;20579;-64
2023/07/18 01:15:20;;;;;;;5.30;4.80;;;;;;;13.65;100.00;97463.88;5077495;28;20198;-64
2023/07/18 01:17:49;;;;;;;4.53;4.13;;;;;;;13.64;100.00;97462.22;5073393;28;20207;-64
2023/07/18 01:20:19;;;;;;;5.97;5.33;;;;;;;13.70;100.00;97456.09;5077152;28;20206;-65
2023/07/18 01:22:49;;;;;;;4.83;4.53;;;;;;;13.71;100.00;97452.41;5074764;28;20203;-63
2023/07/18 01:25:19;;;;;;;4.90;4.50;;;;;;;13.73;100.00;97452.22;5077673;28;20227;-65
2023/07/18 01:27:47;;;;;;;5.30;4.80;;;;;;;13.68;100.00;97446.66;4961497;28;21328;-62
2023/07/18 01:30:17;;;;;;;5.27;4.77;;;;;;;13.64;100.00;97437.44;5079470;28;20285;-64
2023/07/18 01:32:48;;;;;;;5.07;4.57;;;;;;;13.65;100.00;97447.06;5076678;28;20725;-63
2023/07/18 01:35:19;;;;;;;4.40;4.10;;;;;;;13.62;100.00;97434.13;5060802;28;20198;-66
2023/07/18 01:37:48;;;;;;;5.50;5.00;;;;;;;13.63;100.00;97447.25;5037703;28;20212;-64
2023/07/18 01:40:20;;;;;;;5.47;5.07;;;;;;;13.59;100.00;97440.66;5076969;28;20222;-69
2023/07/18 01:42:50;;;;;;;7.10;4.43;;;;;;;13.66;100.00;97449.53;5070833;28;20694;-63
2023/07/18 01:45:18;;;;;;;6.00;5.40;;;;;;;13.65;100.00;97447.88;5069266;28;20207;-68
2023/07/18 01:47:46;;;;;;;5.10;4.70;;;;;;;13.66;100.00;97444.22;5075363;28;20207;-65
2023/07/18 01:50:14;;;;;;;5.10;4.40;;;;;;;13.66;100.00;97454.03;5070105;28;20198;-69
2023/07/18 01:52:41;;;;;;;4.97;4.57;;;;;;;13.59;100.00;97440.66;5069561;28;20206;-61
2023/07/18 01:55:10;;;;;;;5.07;4.50;;;;;;;13.48;100.00;97441.22;5076212;28;20635;-67
2023/07/18 01:57:45;;;;;;;4.90;4.20;;;;;;;13.43;100.00;97439.16;5074994;28;20296;-63
2023/07/18 02:00:18;;;;;;;4.37;3.97;;;;;;;13.52;100.00;97437.16;5058750;28;20213;-68
2023/07/18 02:02:48;;;;;;;5.23;4.60;;;;;;;13.57;100.00;97434.72;5010415;28;20551;-65
2023/07/18 02:05:18;;;;;;;5.57;4.97;;;;;;;13.54;100.00;97430.63;5079821;28;20194;-68
2023/07/18 02:07:46;;;;;;;4.37;4.07;;;;;;;13.52;100.00;97430.00;5077696;28;20214;-65
2023/07/18 02:10:19;;;;;;;4.40;4.03;;;;;;;13.49;100.00;97437.56;5078635;28;20214;-65
2023/07/18 02:12:47;;;;;;;4.47;4.07;;;;;;;13.49;100.00;97438.38;5074307;28;20584;-64
2023/07/18 02:15:15;;;;;;;4.57;4.10;;;;;;;13.50;100.00;97439.19;5076771;28;20206;-66
2023/07/18 02:17:43;;;;;;;4.30;4.00;;;;;;;13.44;100.00;97443.44;5072332;28;20270;-65
2023/07/18 02:20:13;;;;;;;4.27;3.87;;;;;;;13.40;100.00;97445.66;5077016;28;20756;-63
2023/07/18 02:22:43;;;;;;;7.27;4.37;;;;;;;13.43;100.00;97447.13;5078685;28;20297;-67
2023/07/18 02:25:11;;;;;;;5.53;4.50;;;;;;;13.41;100.00;97455.28;5075287;28;20204;-64
2023/07/18 02:27:41;;;;;;;5.03;4.67;;;;;;;13.38;100.00;97452.19;5076021;28;20734;-65
2023/07/18 02:30:10;;;;;;;5.20;4.77;;;;;;;13.28;100.00;97448.03;5076384;28;20199;-64
2023/07/18 02:32:38;;;;;;;5.10;4.60;;;;;;;13.25;100.00;97459.06;5069904;28;20673;-64
2023/07/18 02:35:07;;;;;;;5.23;4.80;;;;;;;13.17;100.00;97454.72;5074746;28;20263;-66
2023/07/18 02:37:36;;;;;;;5.90;5.23;;;;;;;12.92;100.00;97426.94;4933453;28;20215;-66
2023/07/18 02:40:08;;;;;;;9.10;5.10;;;;;;;13.00;100.00;97450.72;5074523;28;20951;-64
2023/07/18 02:42:37;;;;;;;5.70;5.13;;;;;;;12.96;100.00;97452.94;5071600;28;21196;-67
2023/07/18 02:45:08;;;;;;;6.77;5.67;;;;;;;12.88;100.00;97448.59;5075032;28;20271;-67
2023/07/18 02:47:37;;;;;;;10.03;4.97;;;;;;;12.89;100.00;97449.41;5071939;28;20385;-68
2023/07/18 02:50:06;;;;;;;5.37;4.90;;;;;;;12.90;100.00;97459.03;5075820;28;20203;-67
2023/07/18 02:52:34;;;;;;;6.03;5.23;;;;;;;12.88;100.00;97450.41;5070854;28;20241;-71
2023/07/18 02:55:03;;;;;;;5.37;4.97;;;;;;;12.86;100.00;97449.78;5083709;28;20243;-69
2023/07/18 02:57:31;;;;;;;4.97;4.57;;;;;;;12.80;100.00;97451.38;5073825;28;20261;-68
2023/07/18 02:59:59;;;;;;;6.80;5.93;;;;;;;12.76;100.00;97449.28;5072390;28;20666;-65
2023/07/18 03:02:30;;;;;;;5.30;4.90;;;;;;;12.74;100.00;97452.97;5070737;28;20217;-71
2023/07/18 03:04:58;;;;;;;5.43;4.93;;;;;;;12.72;100.00;97459.47;5077729;28;20206;-67
2023/07/18 03:07:26;;;;;;;6.60;5.37;;;;;;;12.71;100.00;97448.03;5016762;28;21787;-68
2023/07/18 03:09:53;;;;;;;5.07;4.67;;;;;;;12.75;100.00;97459.09;5049956;28;20220;-64
2023/07/18 03:12:22;;;;;;;5.43;4.83;;;;;;;12.73;100.00;97459.31;5076185;28;20218;-69
2023/07/18 03:14:49;;;;;;;5.30;4.63;;;;;;;12.76;100.00;97459.94;5076039;28;20206;-63
2023/07/18 03:17:17;;;;;;;5.37;4.87;;;;;;;12.77;100.00;97456.25;5073764;28;20214;-69
2023/07/18 03:19:46;;;;;;;6.13;5.43;;;;;;;12.76;100.00;97454.63;5078837;28;20194;-63
2023/07/18 03:22:14;;;;;;;5.97;5.37;;;;;;;12.73;100.00;97459.31;5072801;28;20283;-69
2023/07/18 03:24:42;;;;;;;5.40;4.90;;;;;;;12.73;100.00;97454.00;5075903;28;20205;-66
2023/07/18 03:27:09;;;;;;;6.47;5.27;;;;;;;12.73;100.00;97464.63;5074408;28;20250;-69
2023/07/18 03:29:37;;;;;;;5.63;5.03;;;;;;;12.71;100.00;97463.16;5070065;28;20222;-66
2023/07/18 03:32:06;;;;;;;6.03;4.83;;;;;;;12.72;100.00;97465.63;5071999;28;20801;-67
2023/07/18 03:34:33;;;;;;;6.80;5.83;;;;;;;12.72;100.00;97473.59;5069533;28;20204;-64
2023/07/18 03:37:02;;;;;;;6.17;5.57;;;;;;;12.70;100.00;97470.31;5070835;28;20237;-69
2023/07/18 03:39:30;;;;;;;5.63;5.13;;;;;;;12.73;100.00;97472.59;5068886;28;20230;-69
2023/07/18 03:41:58;;;;;;;5.73;5.23;;;;;;;12.72;100.00;97476.28;5070740;28;20225;-70
2023/07/18 03:44:26;;;;;;;5.97;5.47;;;;;;;12.74;100.00;97473.41;4971106;28;20745;-65
2023/07/18 03:46:53;;;;;;;6.07;5.47;;;;;;;12.78;100.00;97479.16;5073539;28;20264;-65
2023/07/18 03:49:41;;;;;;;5.77;5.23;;;;;;;12.72;100.00;97470.13;5066752;28;20398;-66
2023/07/18 03:52:10;;;;;;;7.17;6.47;;;;;;;12.80;100.00;97477.16;5071733;28;20199;-71
2023/07/18 03:54:37;;;;;;;6.53;5.93;;;;;;;12.76;100.00;97465.25;5066247;28;20297;-66
2023/07/18 03:57:06;;;;;;;5.70;5.10;;;;;;;12.76;100.00;97468.72;5076378;28;20287;-71
2023/07/18 03:59:34;;;;;;;5.93;5.40;;;;;;;12.80;100.00;97464.66;5069524;28;20209;-65
2023/07/18 04:02:02;;;;;;;6.47;5.23;;;;;;;12.77;100.00;97467.69;5010505;28;20216;-65
2023/07/18 04:04:30;;;;;;;8.20;5.73;;;;;;;12.86;100.00;97473.72;5075815;28;20621;-69
2023/07/18 04:06:58;;;;;;;5.90;5.40;;;;;;;12.85;100.00;97475.53;5073572;28;20226;-64
2023/07/18 04:09:28;;;;;;;5.97;5.37;;;;;;;12.72;100.00;97454.16;5073008;28;20293;-65
2023/07/18 04:11:55;;;;;;;5.37;4.87;;;;;;;12.95;100.00;97474.41;5047362;28;21451;-66
2023/07/18 04:14:23;;;;;;;8.60;5.30;;;;;;;13.01;100.00;97478.97;5069287;28;20202;-65
2023/07/18 04:16:51;;;;;;;5.60;5.07;;;;;;;13.06;100.00;97475.69;4974355;28;20313;-68
2023/07/18 04:19:19;;;;;;;5.30;4.83;;;;;;;13.10;100.00;97474.34;5076170;28;20255;-65
2023/07/18 04:21:46;;;;;;;5.53;4.93;;;;;;;13.14;100.00;97488.88;5011116;28;20270;-65
2023/07/18 04:24:14;;;;;;;6.07;5.27;;;;;;;13.22;100.00;97491.41;5071846;28;20646;-64
2023/07/18 04:26:43;;;;;;;6.07;5.50;;;;;;;13.26;100.00;97490.00;5074960;28;20314;-61
2023/07/18 04:29:10;;;;;;;6.27;5.60;;;;;;;13.39;100.00;97483.09;5073140;28;20205;-66
2023/07/18 04:31:38;;;;;;;5.70;5.20;;;;;;;13.41;100.00;97489.91;5072420;28;20222;-65
2023/07/18 04:34:06;;;;;;;8.93;5.13;;;;;;;13.51;100.00;97483.44;5076294;28;20576;-66
2023/07/18 04:36:34;;;;;;;6.47;5.87;;;;;;;13.53;100.00;97482.22;5071487;28;20247;-66
2023/07/18 04:39:01;;;;;;;5.57;5.07;;;;;;;13.63;100.00;97475.72;5078760;28;20285;-68
2023/07/18 04:41:29;;;;;;;6.20;5.60;;;;;;;13.66;100.00;97480.66;5008578;28;20218;-68
2023/07/18 04:44:13;;;;;;;6.17;5.67;;;;;;;13.77;100.00;97473.94;5073942;28;20207;-65
2023/07/18 04:46:41;;;;;;;5.37;4.97;;;;;;;13.87;100.00;97483.22;4962166;28;21568;-65
2023/07/18 04:49:08;;;;;;;6.03;5.43;;;;;;;14.02;100.00;97484.91;5078387;28;20703;-63
2023/07/18 04:51:36;;;;;;;7.60;5.33;;;;;;;14.21;100.00;97479.88;5065443;28;20203;-66
2023/07/18 04:54:04;;;;;;;6.57;5.93;;;;;;;14.36;100.00;97477.03;5080465;28;20202;-65
2023/07/18 04:56:31;;;;;;;5.87;5.27;;;;;;;14.57;100.00;97476.03;5069485;28;20909;-63
2023/07/18 04:58:59;;;;;;;5.30;4.90;;;;;;;14.71;100.00;97472.44;5074641;28;20225;-63
2023/07/18 05:01:29;;;;;;;5.70;5.10;;;;;;;14.84;100.00;97470.78;5071207;28;20194;-67
2023/07/18 05:03:58;;;;;;;5.37;4.97;;;;;;;14.95;100.00;97469.38;5076064;28;20213;-64
2023/07/18 05:06:26;;;;;;;6.03;4.10;;;;;;;15.16;100.00;97469.16;5072288;28;20290;-62
2023/07/18 05:08:54;;;;;;;4.70;4.17;;;;;;;15.32;100.00;97467.88;5076555;28;20260;-63
2023/07/18 05:11:22;;;;;;;5.47;4.57;;;;;;;15.49;100.00;97464.81;5073274;28;20272;-65
2023/07/18 05:13:49;;;;;;;4.53;4.13;;;;;;;15.63;100.00;97458.38;5074177;28;20232;-62
2023/07/18 05:16:17;;;;;;;5.23;4.40;;;;;;;15.68;100.00;97464.94;5070947;28;20843;-67
2023/07/18 05:18:46;;;;;;;5.10;4.40;;;;;;;15.70;100.00;97452.19;5079374;28;20206;-64
2023/07/18 05:21:14;;;;;;;4.50;4.20;;;;;;;15.72;100.00;97450.13;4977049;28;21373;-66
2023/07/18 05:23:43;;;;;;;4.73;4.20;;;;;;;15.88;100.00;97463.06;5068248;28;20198;-63
2023/07/18 05:26:10;;;;;;;4.23;3.83;;;;;;;15.90;100.00;97458.34;5075807;28;20221;-68
2023/07/18 05:28:38;;;;;;;5.23;4.20;;;;;;;15.87;100.00;97461.41;5075053;28;20275;-67
2023/07/18 05:31:07;;;;;;;4.57;4.17;;;;;;;16.08;100.00;97458.69;5080384;28;20242;-67
2023/07/18 05:33:35;;;;;;;4.50;4.10;;;;;;;16.25;100.00;97459.00;5070967;28;20230;-65
2023/07/18 05:36:05;;;;;;;4.20;3.90;;;;;;;16.30;100.00;97456.50;5070371;28;20248;-65
2023/07/18 05:38:32;;;;;;;4.50;4.20;;;;;;;16.45;100.00;97459.69;5076797;28;20371;-64
2023/07/18 05:41:00;;;;;;;4.37;4.00;;;;;;;16.54;100.00;97459.47;5079380;28;20698;-66
2023/07/18 05:43:27;;;;;;;6.17;4.20;;;;;;;16.60;100.00;97453.25;5072836;28;20221;-62
2023/07/18 05:45:55;;;;;;;5.77;4.17;;;;;;;16.56;100.00;97454.72;5076110;28;20248;-67
2023/07/18 05:48:23;;;;;;;4.80;4.30;;;;;;;16.72;100.00;97459.53;5077335;28;20229;-62
2023/07/18 05:50:50;;;;;;;4.37;3.80;;;;;;;16.77;100.00;97457.03;5075424;28;20313;-67
2023/07/18 05:53:19;;;;;;;3.80;3.53;;;;;;;16.91;100.00;97451.59;5077645;28;20225;-65
2023/07/18 05:55:47;;;;;;;4.30;3.90;;;;;;;16.97;100.00;97449.88;5046876;28;20312;-67
2023/07/18 05:58:15;;;;;;;4.60;4.20;;;;;;;16.94;100.00;97445.81;5004151;28;21607;-66
2023/07/18 06:00:43;;;;;;;3.93;3.60;;;;;;;17.04;100.00;97448.81;5074640;28;20988;-67
2023/07/18 06:03:10;;;;;;;4.20;3.80;;;;;;;17.21;100.00;97446.41;5078463;28;20230;-64
2023/07/18 06:05:38;;;;;;;5.23;3.73;;;;;;;17.23;100.00;97448.06;5080628;28;20798;-64
2023/07/18 06:08:07;;;;;;;4.50;4.10;;;;;;;17.41;100.00;97442.72;5077007;28;20250;-67
2023/07/18 06:10:36;;;;;;;6.70;5.00;;;;;;;17.65;100.00;97446.38;5080653;28;20588;-67
2023/07/18 06:13:03;;;;;;;4.20;3.57;;;;;;;17.84;100.00;97448.25;5075828;28;20312;-64
2023/07/18 06:15:31;;;;;;;5.47;3.83;;;;;;;17.87;100.00;97450.47;5076160;28;20301;-65
2023/07/18 06:17:59;;;;;;;4.40;4.00;;;;;;;17.92;100.00;97445.25;5074986;28;20194;-67
2023/07/18 06:20:27;;;;;;;3.40;3.20;;;;;;;18.05;100.00;97452.34;5076352;28;20289;-65
2023/07/18 06:22:55;;;;;;;5.27;4.03;;;;;;;18.05;100.00;97449.66;5080124;28;20251;-63
2023/07/18 06:25:23;;;;;;;6.40;4.07;;;;;;;18.27;100.00;97441.97;5078213;28;20279;-63
2023/07/18 06:27:52;;;;;;;5.33;4.10;;;;;;;18.38;100.00;97443.06;5072560;28;20199;-65
2023/07/18 06:30:20;;;;;;;3.80;3.50;;;;;;;18.45;100.00;97442.94;5082290;28;20235;-66
2023/07/18 06:32:48;;;;;;;5.40;3.77;;;;;;;18.46;100.00;97450.78;4961821;28;20332;-65
2023/07/18 06:35:15;;;;;;;4.27;3.30;;;;;;;18.60;100.00;97442.53;5075907;28;20241;-66
2023/07/18 06:37:50;;;;;;;4.77;4.33;;;;;;;18.60;100.00;97439.84;5076932;28;20665;-67
2023/07/18 06:40:18;;;;;;;4.40;4.00;;;;;;;18.72;100.00;97440.66;5015146;28;20683;-65
2023/07/18 06:42:46;;;;;;;4.53;4.13;;;;;;;18.94;100.00;97424.84;5077327;28;20231;-63
2023/07/18 06:45:15;;;;;;;5.97;4.50;;;;;;;19.07;100.00;97437.25;5072215;28;20240;-64
2023/07/18 06:47:43;;;;;;;3.80;3.60;;;;;;;19.26;100.00;97445.22;5083363;28;20252;-67
2023/07/18 06:50:11;;;;;;;4.57;4.10;;;;;;;19.09;100.00;97437.03;5075017;28;20202;-67
2023/07/18 06:52:39;;;;;;;4.27;3.97;;;;;;;19.21;100.00;97440.53;5075404;28;20207;-65
2023/07/18 06:55:09;;;;;;;3.80;3.50;;;;;;;19.24;100.00;97407.81;5081544;28;20202;-65
2023/07/18 06:57:37;;;;;;;4.70;4.10;;;;;;;19.59;100.00;97430.34;5074611;28;20735;-67
2023/07/18 07:00:11;;;;;;;5.90;4.20;;;;;;;19.93;95.94;97427.03;5075984;28;20234;-68
2023/07/18 07:02:40;;;;;;;4.27;3.93;;;;;;;20.07;95.94;97430.25;5076395;28;20199;-63
2023/07/18 07:05:09;;;;;;;5.17;4.03;;;;;;;20.03;97.74;97429.09;4962328;28;20541;-65
2023/07/18 07:07:36;;;;;;;4.20;3.90;;;;;;;20.27;93.81;97424.44;5080745;28;20217;-66
2023/07/18 07:10:08;;;;;;;4.43;3.93;;;;;;;20.25;89.02;97421.97;5075687;28;20226;-68
2023/07/18 07:12:36;;;;;;;5.80;4.50;;;;;;;20.41;93.30;97416.88;5077675;28;20213;-65
2023/07/18 07:15:05;;;;;;;4.60;4.23;;;;;;;20.54;88.34;97411.19;5074864;28;20213;-64
2023/07/18 07:17:32;;;;;;;4.27;3.87;;;;;;;20.38;90.61;97393.16;5078981;28;20249;-67
2023/07/18 07:20:01;;;;;;;4.70;4.30;;;;;;;20.63;89.57;97422.38;5071914;28;20202;-65
2023/07/18 07:22:29;;;;;;;4.50;4.10;;;;;;;20.75;88.31;97416.94;5077227;28;20246;-66
2023/07/18 07:24:57;;;;;;;6.33;4.43;;;;;;;20.90;87.00;97410.19;5077914;28;20207;-64
2023/07/18 07:27:24;;;;;;;4.83;4.13;;;;;;;21.05;85.47;97401.53;5077845;28;20245;-66
2023/07/18 07:29:52;;;;;;;5.60;4.33;;;;;;;21.15;83.97;97401.66;5077849;28;20504;-66
2023/07/18 07:32:20;;;;;;;4.63;4.23;;;;;;;21.28;81.88;97397.81;5078468;28;20195;-68
2023/07/18 07:34:48;;;;;;;5.43;4.93;;;;;;;21.55;80.73;97392.50;4960436;28;21783;-65
2023/07/18 07:37:17;;;;;;;4.13;3.73;;;;;;;21.83;81.69;97387.22;5081746;28;20700;-64
2023/07/18 07:39:44;;;;;;;4.67;4.17;;;;;;;21.76;77.51;97378.50;5074270;28;20825;-64
2023/07/18 07:42:12;;;;;;;3.97;3.50;;;;;;;21.61;73.35;97379.91;5078909;28;20222;-64
2023/07/18 07:44:40;;;;;;;3.83;3.53;;;;;;;21.70;74.64;97380.31;5072805;28;20210;-65
2023/07/18 07:47:08;;;;;;;4.10;3.73;;;;;;;21.85;70.93;97378.88;5081125;28;20226;-66
2023/07/18 07:49:35;;;;;;;4.30;3.67;;;;;;;21.86;72.20;97375.94;5070725;28;20329;-69
2023/07/18 07:52:03;;;;;;;7.43;4.13;;;;;;;21.78;69.98;97373.66;5076073;28;20294;-67
2023/07/18 07:54:32;;;;;;;4.43;3.87;;;;;;;21.85;70.92;97377.00;5075559;28;20723;-69
2023/07/18 07:57:00;;;;;;;9.40;3.70;;;;;;;21.89;69.35;97372.72;5076330;28;20838;-65
2023/07/18 07:59:27;;;;;;;3.73;3.43;;;;;;;21.87;67.94;97365.94;5076682;28;20293;-68
2023/07/18 08:01:55;;;;;;;3.53;3.23;;;;;;;21.86;66.47;97361.63;5080315;28;20650;-65
2023/07/18 08:04:23;;;;;;;4.40;4.00;;;;;;;22.02;64.96;97351.81;5010838;28;22790;-66
2023/07/18 08:06:54;;;;;;;3.63;3.30;;;;;;;21.98;62.40;97360.41;5040230;28;20223;-63
2023/07/18 08:09:22;;;;;;;4.03;2.33;;;;;;;22.17;60.07;97351.97;5079993;28;20297;-66
2023/07/18 08:11:51;;;;;;;3.23;2.90;;;;;;;22.40;60.36;97344.59;5078924;28;20294;-65
2023/07/18 08:14:19;;;;;;;3.33;3.00;;;;;;;22.57;58.71;97341.00;5072598;28;20313;-67
2023/07/18 08:16:47;;;;;;;3.47;3.17;;;;;;;22.74;61.55;97336.28;5070332;28;20318;-64
2023/07/18 08:19:14;;;;;;;2.90;2.70;;;;;;;22.90;56.16;97339.88;5075694;28;21996;-66
2023/07/18 08:21:42;;;;;;;7.80;3.27;;;;;;;22.97;55.22;97337.78;5076129;28;20729;-64
2023/07/18 08:24:09;;;;;;;3.03;2.83;;;;;;;23.11;54.90;97335.41;5079559;28;20218;-67
2023/07/18 08:26:37;;;;;;;3.37;3.10;;;;;;;23.10;56.18;97332.97;5074595;28;20241;-66
2023/07/18 08:29:06;;;;;;;3.37;3.07;;;;;;;23.19;56.92;97330.59;5072684;28;20317;-68
2023/07/18 08:31:34;;;;;;;6.13;3.30;;;;;;;23.19;53.23;97328.72;5076802;28;20701;-67
2023/07/18 08:34:02;;;;;;;2.93;2.60;;;;;;;22.98;50.06;97323.19;5054324;28;20214;-67
2023/07/18 08:36:31;;;;;;;3.23;2.50;;;;;;;22.96;51.79;97333.44;4990244;28;20230;-65
2023/07/18 08:38:59;;;;;;;2.30;2.10;;;;;;;22.98;49.43;97328.59;5080980;28;20202;-68
2023/07/18 08:41:26;;;;;;;2.77;2.57;;;;;;;22.96;51.60;97324.53;5079552;28;20314;-66
2023/07/18 08:43:54;;;;;;;2.47;2.07;;;;;;;22.98;48.57;97327.78;5076525;28;20210;-68
2023/07/18 08:46:23;;;;;;;3.40;2.30;;;;;;;22.92;49.87;97318.81;5075167;28;20236;-65
2023/07/18 08:48:51;;;;;;;2.07;1.87;;;;;;;23.28;52.13;97315.53;5082735;28;20206;-65
2023/07/18 08:51:20;;;;;;;3.47;2.53;;;;;;;23.15;53.43;97310.56;5071189;28;20214;-67
2023/07/18 08:53:48;;;;;;;3.07;2.80;;;;;;;23.41;54.02;97315.06;5077437;28;20195;-67
2023/07/18 08:56:15;;;;;;;2.50;2.30;;;;;;;23.50;50.80;97301.03;5070792;28;20301;-66
2023/07/18 08:58:43;;;;;;;3.03;2.50;;;;;;;23.66;48.06;97301.88;5075451;28;20229;-64
2023/07/18 09:01:10;;;;;;;2.53;2.17;;;;;;;23.77;47.29;97300.81;5071982;28;20194;-65
2023/07/18 09:03:40;;;;;;;6.90;2.47;;;;;;;23.92;48.40;97289.22;5078176;28;20785;-64
2023/07/18 09:06:18;;;;;;;6.17;2.90;;;;;;;24.00;47.29;97293.31;5067349;28;20661;-66
2023/07/18 09:08:45;;;;;;;4.73;2.90;;;;;;;24.05;45.61;97292.50;5080381;28;20233;-67
2023/07/18 09:11:14;;;;;;;2.77;2.27;;;;;;;24.42;48.09;97294.16;4961603;28;20218;-64
2023/07/18 09:13:43;;;;;;;2.90;2.70;;;;;;;24.95;44.51;97295.75;5080163;28;20666;-65
2023/07/18 09:16:14;;;;;;;2.53;2.33;;;;;;;25.04;46.28;97288.66;5076702;28;20309;-65
2023/07/18 09:18:50;;;;;;;3.67;2.73;;;;;;;24.84;46.58;97289.53;5075465;28;20235;-64
2023/07/18 09:21:18;;;;;;;2.20;2.10;;;;;;;24.74;46.68;97286.81;5071170;28;20290;-68
2023/07/18 09:23:47;;;;;;;3.47;2.60;;;;;;;24.86;48.32;97284.66;5083011;28;20199;-66
2023/07/18 09:26:16;;;;;;;2.83;2.63;;;;;;;24.46;45.98;97270.06;5075829;28;20296;-65
2023/07/18 09:28:43;;;;;;;3.67;2.80;;;;;;;24.46;46.79;97276.28;5078619;28;20697;-65
2023/07/18 09:31:18;;;;;;;2.87;2.67;;;;;;;23.75;46.00;97277.84;5082743;28;20764;-65
2023/07/18 09:33:47;;;;;;;4.67;2.70;;;;;;;24.18;47.61;97273.03;5079999;28;20551;-66
2023/07/18 09:36:17;;;;;;;3.67;2.70;;;;;;;24.28;47.88;97272.25;5076358;28;20734;-64
2023/07/18 09:38:46;;;;;;;3.30;3.00;;;;;;;24.48;46.25;97270.59;5083943;28;20308;-64
2023/07/18 09:41:14;;;;;;;2.70;2.50;;;;;;;24.02;47.36;97263.28;4968913;28;20198;-64
2023/07/18 09:43:42;;;;;;;4.00;3.40;;;;;;;24.10;47.15;97266.28;5081305;28;20206;-65
2023/07/18 09:46:13;;;;;;;4.10;2.57;;;;;;;23.98;48.67;97258.38;5072650;28;20222;-66
2023/07/18 09:48:41;;;;;;;3.13;2.83;;;;;;;23.89;48.42;97251.88;5079968;28;20199;-64
2023/07/18 09:51:14;;;;;;;3.00;2.80;;;;;;;23.75;48.46;97246.19;5073570;28;20230;-67
2023/07/18 09:53:46;;;;;;;3.13;2.93;;;;;;;23.97;48.98;97251.34;5079810;28;20810;-68
2023/07/18 09:56:15;;;;;;;3.53;3.30;;;;;;;24.03;53.58;97246.78;5074957;28;20304;-65
2023/07/18 09:58:43;;;;;;;3.87;3.27;;;;;;;24.07;48.67;97241.66;5078653;28;20230;-64
2023/07/18 10:01:12;;;;;;;3.73;3.33;;;;;;;24.02;50.52;97238.94;5075290;28;20638;-66
2023/07/18 10:03:40;;;;;;;3.87;3.57;;;;;;;24.18;51.45;97235.16;5078396;28;20289;-64
2023/07/18 10:06:10;;;;;;;5.87;3.10;;;;;;;24.24;50.90;97220.53;5071750;28;20272;-64
2023/07/18 10:08:46;;;;;;;3.27;2.90;;;;;;;24.35;49.52;97220.50;5082209;28;20241;-66
2023/07/18 10:11:13;;;;;;;3.67;3.37;;;;;;;24.39;50.68;97213.47;5074749;28;20317;-67
2023/07/18 10:13:42;;;;;;;7.00;3.37;;;;;;;24.53;49.38;97206.41;5077673;28;20206;-65
2023/07/18 10:16:17;;;;;;;3.77;3.40;;;;;;;24.51;50.57;97205.88;4968841;28;20758;-66
2023/07/18 10:18:45;;;;;;;3.40;3.20;;;;;;;24.40;48.91;97205.09;5081456;28;20209;-64
2023/07/18 10:21:15;;;;;;;5.00;3.27;;;;;;;24.42;50.05;97193.97;5074126;28;20194;-63
2023/07/18 10:23:44;;;;;;;4.87;3.53;;;;;;;24.27;49.75;97190.22;5079127;28;20581;-65
2023/07/18 10:26:14;;;;;;;3.57;3.27;;;;;;;24.26;49.05;97183.16;5070119;28;20227;-68
2023/07/18 10:28:43;;;;;;;4.37;3.30;;;;;;;24.51;49.50;97180.69;5076351;28;20260;-67
2023/07/18 10:31:26;;;;;;;3.07;2.87;;;;;;;24.54;50.63;97150.34;5071969;28;20311;-65
2023/07/18 10:34:10;;;;;;;3.50;3.20;;;;;;;24.76;50.63;97166.28;5076300;28;20222;-68
2023/07/18 10:36:38;;;;;;;3.87;3.57;;;;;;;24.63;50.30;97161.41;5074588;28;20352;-68
2023/07/18 10:39:10;;;;;;;3.20;2.90;;;;;;;24.70;52.03;97160.06;5077514;28;20248;-68
2023/07/18 10:41:37;;;;;;;3.73;3.40;;;;;;;24.95;51.75;97157.53;5077636;28;20208;-67
2023/07/18 10:44:06;;;;;;;4.63;4.20;;;;;;;25.27;55.53;97157.09;5047786;28;20298;-67
2023/07/18 10:46:38;;;;;;;3.33;3.03;;;;;;;25.43;50.17;97152.38;5002181;28;20233;-64
2023/07/18 10:49:06;;;;;;;7.57;3.70;;;;;;;25.54;52.15;97168.59;5077257;28;20202;-68
2023/07/18 10:51:34;;;;;;;5.03;3.60;;;;;;;25.68;51.14;97163.34;5071514;28;20320;-65
2023/07/18 10:54:04;;;;;;;3.67;3.23;;;;;;;25.57;50.46;97157.19;5080133;28;20195;-67
2023/07/18 10:56:33;;;;;;;3.73;3.30;;;;;;;25.65;55.18;97161.22;5078435;28;20214;-64
2023/07/18 10:59:00;;;;;;;3.27;3.00;;;;;;;25.56;50.77;97161.00;5073192;28;20195;-67
2023/07/18 11:01:28;;;;;;;3.80;3.50;;;;;;;25.83;50.01;97152.41;5076088;28;20237;-66
2023/07/18 11:03:56;;;;;;;14.00;4.03;;;;;;;25.70;49.51;97153.03;5076166;28;20203;-68
2023/07/18 11:06:24;;;;;;;5.27;3.87;;;;;;;26.09;51.13;97160.28;5078390;28;20214;-65
2023/07/18 11:08:51;;;;;;;3.40;3.20;;;;;;;26.30;48.73;97162.84;5071547;28;20213;-66
2023/07/18 11:11:19;;;;;;;3.63;3.33;;;;;;;26.38;48.96;97132.34;5076253;28;20218;-64
2023/07/18 11:13:48;;;;;;;4.60;3.67;;;;;;;26.66;48.20;97148.88;5073641;28;20242;-68
2023/07/18 11:16:16;;;;;;;3.77;3.47;;;;;;;26.73;47.30;97145.81;5072260;28;20961;-67
2023/07/18 11:18:46;;;;;;;5.30;3.80;;;;;;;26.87;48.67;97143.19;5078905;28;20647;-65
2023/07/18 11:21:14;;;;;;;4.20;3.77;;;;;;;26.91;46.87;97146.97;4965713;28;20210;-65
2023/07/18 11:23:43;;;;;;;3.50;3.20;;;;;;;26.94;45.55;97140.13;5076022;28;20203;-65
2023/07/18 11:26:14;;;;;;;4.77;3.20;;;;;;;26.82;46.07;97143.25;5071383;28;20837;-64
2023/07/18 11:28:43;;;;;;;3.23;2.97;;;;;;;26.89;46.75;97138.28;5072503;28;20298;-66
2023/07/18 11:31:26;;;;;;;4.23;3.57;;;;;;;26.97;47.71;97139.56;5077105;28;20217;-66
2023/07/18 11:33:57;;;;;;;3.90;3.60;;;;;;;26.98;46.76;97130.28;5071481;28;20803;-65
2023/07/18 11:36:29;;;;;;;5.23;3.23;;;;;;;27.20;45.94;97137.09;5077473;28;20233;-64